sensor_id;sensor_type;location;lat;lon;timestamp;P1;durP1;ratioP1;P2;durP2;ratioP2
41739;SDS011;27422;52.444;13.300;2023-10-19T00:01:55;17.23;;;10.80;;
41739;SDS011;27422;52.444;13.300;2023-10-19T00:04:26;16.20;;;10.50;;
41739;SDS011;27422;52.444;13.300;2023-10-19T00:06:56;17.75;;;10.13;;
41739;SDS011;27422;52.444;13.300;2023-10-19T00:09:22;18.30;;;10.80;;
41739;SDS011;27422;52.444;13.300;2023-10-19T00:11:49;16.80;;;10.82;;
41739;SDS011;27422;52.444;13.300;2023-10-19T00:16:45;17.40;;;11.05;;
41739;SDS011;27422;52.444;13.300;2023-10-19T00:19:19;16.38;;;10.75;;
41739;SDS011;27422;52.444;13.300;2023-10-19T00:21:45;15.90;;;10.20;;
41739;SDS011;27422;52.444;13.300;2023-10-19T00:24:20;17.92;;;10.27;;
41739;SDS011;27422;52.444;13.300;2023-10-19T00:26:48;17.20;;;10.98;;
41739;SDS011;27422;52.444;13.300;2023-10-19T00:29:13;18.83;;;11.02;;
41739;SDS011;27422;52.444;13.300;2023-10-19T00:31:55;17.15;;;10.82;;
41739;SDS011;27422;52.444;13.300;2023-10-19T00:34:21;15.07;;;10.27;;
41739;SDS011;27422;52.444;13.300;2023-10-19T00:36:49;17.75;;;10.82;;
41739;SDS011;27422;52.444;13.300;2023-10-19T00:39:16;18.08;;;11.45;;
41739;SDS011;27422;52.444;13.300;2023-10-19T00:41:47;19.73;;;11.25;;
41739;SDS011;27422;52.444;13.300;2023-10-19T00:44:13;17.33;;;10.45;;
41739;SDS011;27422;52.444;13.300;2023-10-19T00:46:43;17.75;;;10.18;;
41739;SDS011;27422;52.444;13.300;2023-10-19T00:49:09;18.93;;;11.10;;
41739;SDS011;27422;52.444;13.300;2023-10-19T00:51:39;16.42;;;10.75;;
41739;SDS011;27422;52.444;13.300;2023-10-19T00:56:46;17.02;;;11.10;;
41739;SDS011;27422;52.444;13.300;2023-10-19T00:59:17;19.13;;;11.73;;
41739;SDS011;27422;52.444;13.300;2023-10-19T01:01:52;16.58;;;10.55;;
41739;SDS011;27422;52.444;13.300;2023-10-19T01:04:28;17.00;;;11.05;;
41739;SDS011;27422;52.444;13.300;2023-10-19T01:06:57;18.65;;;10.57;;
41739;SDS011;27422;52.444;13.300;2023-10-19T01:09:26;17.92;;;11.20;;
41739;SDS011;27422;52.444;13.300;2023-10-19T01:11:53;17.98;;;11.02;;
41739;SDS011;27422;52.444;13.300;2023-10-19T01:14:19;18.42;;;11.10;;
41739;SDS011;27422;52.444;13.300;2023-10-19T01:16:47;17.90;;;10.25;;
41739;SDS011;27422;52.444;13.300;2023-10-19T01:19:14;16.55;;;11.05;;
41739;SDS011;27422;52.444;13.300;2023-10-19T01:21:43;16.48;;;10.05;;
41739;SDS011;27422;52.444;13.300;2023-10-19T01:24:11;18.48;;;11.02;;
41739;SDS011;27422;52.444;13.300;2023-10-19T01:26:41;19.33;;;11.50;;
41739;SDS011;27422;52.444;13.300;2023-10-19T01:29:07;16.48;;;10.50;;
41739;SDS011;27422;52.444;13.300;2023-10-19T01:31:41;16.65;;;10.73;;
41739;SDS011;27422;52.444;13.300;2023-10-19T01:34:20;16.30;;;10.40;;
41739;SDS011;27422;52.444;13.300;2023-10-19T01:36:47;17.25;;;10.80;;
41739;SDS011;27422;52.444;13.300;2023-10-19T01:39:15;16.60;;;11.13;;
41739;SDS011;27422;52.444;13.300;2023-10-19T01:41:43;18.40;;;10.27;;
41739;SDS011;27422;52.444;13.300;2023-10-19T01:44:09;17.70;;;11.10;;
41739;SDS011;27422;52.444;13.300;2023-10-19T01:46:38;18.30;;;11.00;;
41739;SDS011;27422;52.444;13.300;2023-10-19T01:49:08;16.38;;;10.43;;
41739;SDS011;27422;52.444;13.300;2023-10-19T01:51:34;17.70;;;10.80;;
41739;SDS011;27422;52.444;13.300;2023-10-19T01:54:03;19.52;;;11.88;;
41739;SDS011;27422;52.444;13.300;2023-10-19T01:56:30;17.75;;;11.40;;
41739;SDS011;27422;52.444;13.300;2023-10-19T01:58:56;17.40;;;10.80;;
41739;SDS011;27422;52.444;13.300;2023-10-19T02:01:22;20.40;;;11.60;;
41739;SDS011;27422;52.444;13.300;2023-10-19T02:03:51;18.88;;;11.20;;
41739;SDS011;27422;52.444;13.300;2023-10-19T02:06:22;17.60;;;11.27;;
41739;SDS011;27422;52.444;13.300;2023-10-19T02:08:59;18.40;;;11.27;;
41739;SDS011;27422;52.444;13.300;2023-10-19T02:11:34;19.20;;;10.73;;
41739;SDS011;27422;52.444;13.300;2023-10-19T02:13:59;17.10;;;11.00;;
41739;SDS011;27422;52.444;13.300;2023-10-19T02:16:38;20.35;;;11.32;;
41739;SDS011;27422;52.444;13.300;2023-10-19T02:19:04;19.75;;;11.40;;
41739;SDS011;27422;52.444;13.300;2023-10-19T02:21:32;19.65;;;11.75;;
41739;SDS011;27422;52.444;13.300;2023-10-19T02:24:03;17.20;;;10.35;;
41739;SDS011;27422;52.444;13.300;2023-10-19T02:26:29;18.58;;;11.25;;
41739;SDS011;27422;52.444;13.300;2023-10-19T02:28:55;17.65;;;11.05;;
41739;SDS011;27422;52.444;13.300;2023-10-19T02:31:21;19.15;;;11.50;;
41739;SDS011;27422;52.444;13.300;2023-10-19T02:33:51;18.17;;;11.55;;
41739;SDS011;27422;52.444;13.300;2023-10-19T02:36:18;17.77;;;11.10;;
41739;SDS011;27422;52.444;13.300;2023-10-19T02:38:45;17.40;;;10.40;;
41739;SDS011;27422;52.444;13.300;2023-10-19T02:41:14;19.83;;;11.05;;
41739;SDS011;27422;52.444;13.300;2023-10-19T02:43:41;19.02;;;11.27;;
41739;SDS011;27422;52.444;13.300;2023-10-19T02:46:07;20.48;;;11.48;;
41739;SDS011;27422;52.444;13.300;2023-10-19T02:48:32;17.20;;;11.85;;
41739;SDS011;27422;52.444;13.300;2023-10-19T02:50:57;19.95;;;11.70;;
41739;SDS011;27422;52.444;13.300;2023-10-19T02:53:31;19.25;;;11.52;;
41739;SDS011;27422;52.444;13.300;2023-10-19T02:55:57;20.92;;;11.63;;
41739;SDS011;27422;52.444;13.300;2023-10-19T02:58:27;20.52;;;11.95;;
41739;SDS011;27422;52.444;13.300;2023-10-19T03:00:53;19.73;;;11.73;;
41739;SDS011;27422;52.444;13.300;2023-10-19T03:03:20;16.87;;;11.17;;
41739;SDS011;27422;52.444;13.300;2023-10-19T03:05:45;17.98;;;11.23;;
41739;SDS011;27422;52.444;13.300;2023-10-19T03:08:11;23.05;;;12.20;;
41739;SDS011;27422;52.444;13.300;2023-10-19T03:10:40;19.67;;;11.57;;
41739;SDS011;27422;52.444;13.300;2023-10-19T03:13:09;19.85;;;12.00;;
41739;SDS011;27422;52.444;13.300;2023-10-19T03:15:34;19.80;;;11.27;;
41739;SDS011;27422;52.444;13.300;2023-10-19T03:18:00;19.35;;;11.40;;
41739;SDS011;27422;52.444;13.300;2023-10-19T03:20:27;20.90;;;11.68;;
41739;SDS011;27422;52.444;13.300;2023-10-19T03:22:53;17.13;;;11.80;;
41739;SDS011;27422;52.444;13.300;2023-10-19T03:25:23;20.85;;;11.18;;
41739;SDS011;27422;52.444;13.300;2023-10-19T03:28:07;20.02;;;12.02;;
41739;SDS011;27422;52.444;13.300;2023-10-19T03:30:41;20.30;;;12.27;;
41739;SDS011;27422;52.444;13.300;2023-10-19T03:33:07;19.27;;;12.40;;
41739;SDS011;27422;52.444;13.300;2023-10-19T03:35:37;20.65;;;11.88;;
41739;SDS011;27422;52.444;13.300;2023-10-19T03:38:03;18.17;;;11.60;;
41739;SDS011;27422;52.444;13.300;2023-10-19T03:40:39;18.52;;;11.95;;
41739;SDS011;27422;52.444;13.300;2023-10-19T03:43:04;20.30;;;12.10;;
41739;SDS011;27422;52.444;13.300;2023-10-19T03:45:39;20.58;;;12.70;;
41739;SDS011;27422;52.444;13.300;2023-10-19T03:48:09;19.05;;;11.50;;
41739;SDS011;27422;52.444;13.300;2023-10-19T03:50:35;20.65;;;12.45;;
41739;SDS011;27422;52.444;13.300;2023-10-19T03:53:01;19.02;;;12.15;;
41739;SDS011;27422;52.444;13.300;2023-10-19T03:55:29;19.27;;;12.02;;
41739;SDS011;27422;52.444;13.300;2023-10-19T03:57:55;20.90;;;12.88;;
41739;SDS011;27422;52.444;13.300;2023-10-19T04:00:21;21.50;;;12.55;;
41739;SDS011;27422;52.444;13.300;2023-10-19T04:02:50;21.88;;;12.55;;
41739;SDS011;27422;52.444;13.300;2023-10-19T04:05:18;23.48;;;13.07;;
41739;SDS011;27422;52.444;13.300;2023-10-19T04:07:48;19.95;;;12.25;;
41739;SDS011;27422;52.444;13.300;2023-10-19T04:10:19;22.63;;;12.35;;
41739;SDS011;27422;52.444;13.300;2023-10-19T04:13:00;19.58;;;12.38;;
41739;SDS011;27422;52.444;13.300;2023-10-19T04:15:26;22.02;;;13.75;;
41739;SDS011;27422;52.444;13.300;2023-10-19T04:17:51;20.92;;;12.30;;
41739;SDS011;27422;52.444;13.300;2023-10-19T04:20:20;24.30;;;13.45;;
41739;SDS011;27422;52.444;13.300;2023-10-19T04:22:46;22.95;;;13.60;;
41739;SDS011;27422;52.444;13.300;2023-10-19T04:25:13;24.30;;;13.48;;
41739;SDS011;27422;52.444;13.300;2023-10-19T04:27:41;23.05;;;13.15;;
41739;SDS011;27422;52.444;13.300;2023-10-19T04:30:08;20.30;;;12.93;;
41739;SDS011;27422;52.444;13.300;2023-10-19T04:32:52;23.85;;;13.60;;
41739;SDS011;27422;52.444;13.300;2023-10-19T04:35:18;21.20;;;13.23;;
41739;SDS011;27422;52.444;13.300;2023-10-19T04:37:51;22.77;;;12.57;;
41739;SDS011;27422;52.444;13.300;2023-10-19T04:40:20;23.70;;;13.07;;
41739;SDS011;27422;52.444;13.300;2023-10-19T04:42:53;21.80;;;13.77;;
41739;SDS011;27422;52.444;13.300;2023-10-19T04:45:23;21.75;;;14.57;;
41739;SDS011;27422;52.444;13.300;2023-10-19T04:47:52;24.00;;;14.20;;
41739;SDS011;27422;52.444;13.300;2023-10-19T04:50:18;21.50;;;12.95;;
41739;SDS011;27422;52.444;13.300;2023-10-19T04:52:44;23.23;;;14.20;;
41739;SDS011;27422;52.444;13.300;2023-10-19T04:55:09;20.45;;;13.63;;
41739;SDS011;27422;52.444;13.300;2023-10-19T04:57:34;22.70;;;13.63;;
41739;SDS011;27422;52.444;13.300;2023-10-19T05:00:00;20.73;;;13.10;;
41739;SDS011;27422;52.444;13.300;2023-10-19T05:02:25;22.83;;;14.13;;
41739;SDS011;27422;52.444;13.300;2023-10-19T05:04:51;22.85;;;14.52;;
41739;SDS011;27422;52.444;13.300;2023-10-19T05:07:16;26.95;;;14.93;;
41739;SDS011;27422;52.444;13.300;2023-10-19T05:09:45;22.40;;;13.18;;
41739;SDS011;27422;52.444;13.300;2023-10-19T05:12:18;23.33;;;13.95;;
41739;SDS011;27422;52.444;13.300;2023-10-19T05:14:44;22.23;;;13.65;;
41739;SDS011;27422;52.444;13.300;2023-10-19T05:17:10;23.38;;;13.63;;
41739;SDS011;27422;52.444;13.300;2023-10-19T05:19:37;23.42;;;13.88;;
41739;SDS011;27422;52.444;13.300;2023-10-19T05:22:04;23.05;;;13.95;;
41739;SDS011;27422;52.444;13.300;2023-10-19T05:24:34;23.20;;;14.25;;
41739;SDS011;27422;52.444;13.300;2023-10-19T05:27:00;24.77;;;14.70;;
41739;SDS011;27422;52.444;13.300;2023-10-19T05:29:25;23.23;;;14.70;;
41739;SDS011;27422;52.444;13.300;2023-10-19T05:31:51;26.60;;;14.60;;
41739;SDS011;27422;52.444;13.300;2023-10-19T05:34:25;25.42;;;14.80;;
41739;SDS011;27422;52.444;13.300;2023-10-19T05:37:09;27.02;;;15.60;;
41739;SDS011;27422;52.444;13.300;2023-10-19T05:39:35;25.35;;;15.60;;
41739;SDS011;27422;52.444;13.300;2023-10-19T05:42:01;27.63;;;15.98;;
41739;SDS011;27422;52.444;13.300;2023-10-19T05:44:29;24.40;;;15.27;;
41739;SDS011;27422;52.444;13.300;2023-10-19T05:46:55;26.15;;;15.15;;
41739;SDS011;27422;52.444;13.300;2023-10-19T05:49:21;27.58;;;16.17;;
41739;SDS011;27422;52.444;13.300;2023-10-19T05:51:49;25.75;;;15.70;;
41739;SDS011;27422;52.444;13.300;2023-10-19T05:54:15;28.73;;;15.90;;
41739;SDS011;27422;52.444;13.300;2023-10-19T05:56:42;26.80;;;16.90;;
41739;SDS011;27422;52.444;13.300;2023-10-19T05:59:07;27.05;;;16.23;;
41739;SDS011;27422;52.444;13.300;2023-10-19T06:01:35;26.67;;;16.95;;
41739;SDS011;27422;52.444;13.300;2023-10-19T06:04:02;26.80;;;15.97;;
41739;SDS011;27422;52.444;13.300;2023-10-19T06:06:28;27.92;;;16.73;;
41739;SDS011;27422;52.444;13.300;2023-10-19T06:08:53;27.08;;;17.23;;
41739;SDS011;27422;52.444;13.300;2023-10-19T06:11:19;31.95;;;17.35;;
41739;SDS011;27422;52.444;13.300;2023-10-19T06:13:46;26.75;;;17.45;;
41739;SDS011;27422;52.444;13.300;2023-10-19T06:16:11;27.77;;;16.73;;
41739;SDS011;27422;52.444;13.300;2023-10-19T06:18:37;26.70;;;16.80;;
41739;SDS011;27422;52.444;13.300;2023-10-19T06:21:02;28.48;;;16.95;;
41739;SDS011;27422;52.444;13.300;2023-10-19T06:23:29;30.25;;;16.83;;
41739;SDS011;27422;52.444;13.300;2023-10-19T06:25:56;30.15;;;17.75;;
41739;SDS011;27422;52.444;13.300;2023-10-19T06:28:25;29.27;;;18.63;;
41739;SDS011;27422;52.444;13.300;2023-10-19T06:30:50;29.08;;;18.63;;
41739;SDS011;27422;52.444;13.300;2023-10-19T06:33:19;27.58;;;17.67;;
41739;SDS011;27422;52.444;13.300;2023-10-19T06:35:48;29.55;;;18.20;;
41739;SDS011;27422;52.444;13.300;2023-10-19T06:38:13;27.52;;;17.73;;
41739;SDS011;27422;52.444;13.300;2023-10-19T06:40:39;28.80;;;18.05;;
41739;SDS011;27422;52.444;13.300;2023-10-19T06:43:05;28.65;;;17.90;;
41739;SDS011;27422;52.444;13.300;2023-10-19T06:45:31;32.47;;;18.33;;
41739;SDS011;27422;52.444;13.300;2023-10-19T06:47:57;32.05;;;18.75;;
41739;SDS011;27422;52.444;13.300;2023-10-19T06:50:28;29.40;;;18.25;;
41739;SDS011;27422;52.444;13.300;2023-10-19T06:52:56;31.20;;;17.92;;
41739;SDS011;27422;52.444;13.300;2023-10-19T06:55:22;32.15;;;18.33;;
41739;SDS011;27422;52.444;13.300;2023-10-19T06:57:48;30.80;;;17.63;;
41739;SDS011;27422;52.444;13.300;2023-10-19T07:00:21;27.85;;;17.90;;
41739;SDS011;27422;52.444;13.300;2023-10-19T07:02:49;30.38;;;18.45;;
41739;SDS011;27422;52.444;13.300;2023-10-19T07:05:21;28.80;;;18.10;;
41739;SDS011;27422;52.444;13.300;2023-10-19T07:07:51;34.45;;;18.90;;
41739;SDS011;27422;52.444;13.300;2023-10-19T07:10:17;27.40;;;17.45;;
41739;SDS011;27422;52.444;13.300;2023-10-19T07:12:44;27.58;;;18.20;;
41739;SDS011;27422;52.444;13.300;2023-10-19T07:15:11;30.77;;;18.40;;
41739;SDS011;27422;52.444;13.300;2023-10-19T07:17:40;27.98;;;18.20;;
41739;SDS011;27422;52.444;13.300;2023-10-19T07:20:10;28.05;;;17.60;;
41739;SDS011;27422;52.444;13.300;2023-10-19T07:22:50;27.02;;;17.73;;
41739;SDS011;27422;52.444;13.300;2023-10-19T07:25:16;30.23;;;18.23;;
41739;SDS011;27422;52.444;13.300;2023-10-19T07:27:45;26.42;;;17.38;;
41739;SDS011;27422;52.444;13.300;2023-10-19T07:30:11;25.15;;;17.33;;
41739;SDS011;27422;52.444;13.300;2023-10-19T07:32:40;27.77;;;17.02;;
41739;SDS011;27422;52.444;13.300;2023-10-19T07:35:05;30.02;;;17.45;;
41739;SDS011;27422;52.444;13.300;2023-10-19T07:37:31;28.75;;;17.88;;
41739;SDS011;27422;52.444;13.300;2023-10-19T07:39:57;29.45;;;17.83;;
41739;SDS011;27422;52.444;13.300;2023-10-19T07:42:23;30.70;;;17.60;;
41739;SDS011;27422;52.444;13.300;2023-10-19T07:44:49;28.20;;;17.33;;
41739;SDS011;27422;52.444;13.300;2023-10-19T07:47:14;27.58;;;17.15;;
41739;SDS011;27422;52.444;13.300;2023-10-19T07:49:49;26.63;;;16.75;;
41739;SDS011;27422;52.444;13.300;2023-10-19T07:54:42;29.10;;;17.10;;
41739;SDS011;27422;52.444;13.300;2023-10-19T07:57:07;27.30;;;16.55;;
41739;SDS011;27422;52.444;13.300;2023-10-19T07:59:33;26.52;;;16.85;;
41739;SDS011;27422;52.444;13.300;2023-10-19T08:01:59;29.52;;;16.83;;
41739;SDS011;27422;52.444;13.300;2023-10-19T08:04:29;26.25;;;15.80;;
41739;SDS011;27422;52.444;13.300;2023-10-19T08:06:55;26.02;;;16.27;;
41739;SDS011;27422;52.444;13.300;2023-10-19T08:09:22;29.83;;;17.60;;
41739;SDS011;27422;52.444;13.300;2023-10-19T08:11:48;25.30;;;16.15;;
41739;SDS011;27422;52.444;13.300;2023-10-19T08:14:18;24.92;;;15.50;;
41739;SDS011;27422;52.444;13.300;2023-10-19T08:16:44;26.83;;;16.30;;
41739;SDS011;27422;52.444;13.300;2023-10-19T08:19:10;26.50;;;15.65;;
41739;SDS011;27422;52.444;13.300;2023-10-19T08:21:37;26.93;;;16.10;;
41739;SDS011;27422;52.444;13.300;2023-10-19T08:24:02;24.95;;;15.32;;
41739;SDS011;27422;52.444;13.300;2023-10-19T08:26:29;27.03;;;16.90;;
41739;SDS011;27422;52.444;13.300;2023-10-19T08:28:57;23.55;;;15.73;;
41739;SDS011;27422;52.444;13.300;2023-10-19T08:31:24;25.48;;;16.30;;
41739;SDS011;27422;52.444;13.300;2023-10-19T08:33:50;26.35;;;16.10;;
41739;SDS011;27422;52.444;13.300;2023-10-19T08:36:17;26.42;;;16.10;;
41739;SDS011;27422;52.444;13.300;2023-10-19T08:38:44;25.85;;;16.25;;
41739;SDS011;27422;52.444;13.300;2023-10-19T08:41:10;26.25;;;16.55;;
41739;SDS011;27422;52.444;13.300;2023-10-19T08:46:36;25.23;;;16.23;;
41739;SDS011;27422;52.444;13.300;2023-10-19T08:49:08;26.80;;;16.33;;
41739;SDS011;27422;52.444;13.300;2023-10-19T08:51:38;25.65;;;15.98;;
41739;SDS011;27422;52.444;13.300;2023-10-19T08:54:04;26.77;;;16.80;;
41739;SDS011;27422;52.444;13.300;2023-10-19T08:56:31;25.65;;;15.95;;
41739;SDS011;27422;52.444;13.300;2023-10-19T08:58:58;23.60;;;15.45;;
41739;SDS011;27422;52.444;13.300;2023-10-19T09:01:44;27.33;;;16.90;;
41739;SDS011;27422;52.444;13.300;2023-10-19T09:04:10;24.80;;;15.95;;
41739;SDS011;27422;52.444;13.300;2023-10-19T09:13:19;27.52;;;16.38;;
41739;SDS011;27422;52.444;13.300;2023-10-19T09:15:53;23.90;;;16.35;;
41739;SDS011;27422;52.444;13.300;2023-10-19T09:18:31;22.17;;;14.80;;
41739;SDS011;27422;52.444;13.300;2023-10-19T09:21:25;24.80;;;15.70;;
41739;SDS011;27422;52.444;13.300;2023-10-19T09:23:53;23.88;;;15.80;;
41739;SDS011;27422;52.444;13.300;2023-10-19T09:26:20;25.67;;;16.88;;
41739;SDS011;27422;52.444;13.300;2023-10-19T09:28:50;25.40;;;16.00;;
41739;SDS011;27422;52.444;13.300;2023-10-19T09:31:17;25.88;;;16.15;;
41739;SDS011;27422;52.444;13.300;2023-10-19T09:33:44;24.65;;;16.60;;
41739;SDS011;27422;52.444;13.300;2023-10-19T09:36:10;23.20;;;15.70;;
41739;SDS011;27422;52.444;13.300;2023-10-19T09:38:49;23.73;;;15.73;;
41739;SDS011;27422;52.444;13.300;2023-10-19T09:41:25;29.33;;;16.73;;
41739;SDS011;27422;52.444;13.300;2023-10-19T09:44:02;27.38;;;15.95;;
41739;SDS011;27422;52.444;13.300;2023-10-19T09:46:32;25.42;;;15.68;;
41739;SDS011;27422;52.444;13.300;2023-10-19T09:49:01;22.92;;;15.80;;
41739;SDS011;27422;52.444;13.300;2023-10-19T09:51:27;25.48;;;16.25;;
41739;SDS011;27422;52.444;13.300;2023-10-19T09:53:58;25.75;;;16.23;;
41739;SDS011;27422;52.444;13.300;2023-10-19T09:56:26;27.23;;;17.23;;
41739;SDS011;27422;52.444;13.300;2023-10-19T09:58:57;26.17;;;17.48;;
41739;SDS011;27422;52.444;13.300;2023-10-19T10:01:23;25.60;;;16.70;;
41739;SDS011;27422;52.444;13.300;2023-10-19T10:06:17;25.95;;;16.83;;
41739;SDS011;27422;52.444;13.300;2023-10-19T10:08:52;25.40;;;16.30;;
41739;SDS011;27422;52.444;13.300;2023-10-19T10:11:22;26.35;;;17.58;;
41739;SDS011;27422;52.444;13.300;2023-10-19T10:13:57;28.75;;;18.10;;
41739;SDS011;27422;52.444;13.300;2023-10-19T10:16:26;28.00;;;18.23;;
41739;SDS011;27422;52.444;13.300;2023-10-19T10:19:11;25.40;;;17.73;;
41739;SDS011;27422;52.444;13.300;2023-10-19T10:22:03;27.00;;;18.17;;
41739;SDS011;27422;52.444;13.300;2023-10-19T10:24:31;27.70;;;18.00;;
41739;SDS011;27422;52.444;13.300;2023-10-19T10:27:06;27.98;;;18.13;;
41739;SDS011;27422;52.444;13.300;2023-10-19T10:29:31;28.60;;;19.08;;
41739;SDS011;27422;52.444;13.300;2023-10-19T10:31:58;29.63;;;18.90;;
41739;SDS011;27422;52.444;13.300;2023-10-19T10:37:01;31.10;;;18.58;;
41739;SDS011;27422;52.444;13.300;2023-10-19T10:39:28;29.93;;;18.70;;
41739;SDS011;27422;52.444;13.300;2023-10-19T10:41:58;32.33;;;20.23;;
41739;SDS011;27422;52.444;13.300;2023-10-19T10:44:40;31.70;;;20.63;;
41739;SDS011;27422;52.444;13.300;2023-10-19T10:47:17;34.97;;;21.13;;
41739;SDS011;27422;52.444;13.300;2023-10-19T10:49:59;35.40;;;20.67;;
41739;SDS011;27422;52.444;13.300;2023-10-19T10:57:32;35.60;;;21.70;;
41739;SDS011;27422;52.444;13.300;2023-10-19T11:00:05;33.15;;;20.85;;
41739;SDS011;27422;52.444;13.300;2023-10-19T11:02:40;36.95;;;23.08;;
41739;SDS011;27422;52.444;13.300;2023-10-19T11:05:15;37.45;;;22.05;;
41739;SDS011;27422;52.444;13.300;2023-10-19T11:10:41;35.92;;;22.60;;
41739;SDS011;27422;52.444;13.300;2023-10-19T11:13:12;35.67;;;22.90;;
41739;SDS011;27422;52.444;13.300;2023-10-19T11:15:53;39.08;;;23.23;;
41739;SDS011;27422;52.444;13.300;2023-10-19T11:20:57;34.80;;;22.20;;
41739;SDS011;27422;52.444;13.300;2023-10-19T11:23:37;31.17;;;22.25;;
41739;SDS011;27422;52.444;13.300;2023-10-19T11:26:08;35.88;;;21.67;;
41739;SDS011;27422;52.444;13.300;2023-10-19T11:28:38;34.25;;;22.67;;
41739;SDS011;27422;52.444;13.300;2023-10-19T11:31:18;37.00;;;22.65;;
41739;SDS011;27422;52.444;13.300;2023-10-19T11:33:47;33.77;;;21.60;;
41739;SDS011;27422;52.444;13.300;2023-10-19T11:36:20;32.85;;;22.05;;
41739;SDS011;27422;52.444;13.300;2023-10-19T11:38:47;35.90;;;22.23;;
41739;SDS011;27422;52.444;13.300;2023-10-19T11:41:19;33.75;;;21.63;;
41739;SDS011;27422;52.444;13.300;2023-10-19T11:43:45;34.05;;;21.17;;
41739;SDS011;27422;52.444;13.300;2023-10-19T11:46:11;31.60;;;20.20;;
41739;SDS011;27422;52.444;13.300;2023-10-19T11:48:37;34.92;;;22.10;;
41739;SDS011;27422;52.444;13.300;2023-10-19T11:51:05;35.67;;;21.23;;
41739;SDS011;27422;52.444;13.300;2023-10-19T11:53:31;31.40;;;21.15;;
41739;SDS011;27422;52.444;13.300;2023-10-19T11:55:59;32.15;;;21.75;;
41739;SDS011;27422;52.444;13.300;2023-10-19T11:58:34;33.03;;;20.77;;
41739;SDS011;27422;52.444;13.300;2023-10-19T12:01:02;37.80;;;22.10;;
41739;SDS011;27422;52.444;13.300;2023-10-19T12:03:30;34.83;;;22.15;;
41739;SDS011;27422;52.444;13.300;2023-10-19T12:05:56;35.78;;;23.20;;
41739;SDS011;27422;52.444;13.300;2023-10-19T12:08:22;38.15;;;23.05;;
41739;SDS011;27422;52.444;13.300;2023-10-19T12:10:48;37.15;;;24.08;;
41739;SDS011;27422;52.444;13.300;2023-10-19T12:13:17;38.63;;;23.23;;
41739;SDS011;27422;52.444;13.300;2023-10-19T12:15:42;36.72;;;23.25;;
41739;SDS011;27422;52.444;13.300;2023-10-19T12:18:16;37.15;;;23.63;;
41739;SDS011;27422;52.444;13.300;2023-10-19T12:20:43;35.65;;;23.77;;
41739;SDS011;27422;52.444;13.300;2023-10-19T12:23:10;37.60;;;22.95;;
41739;SDS011;27422;52.444;13.300;2023-10-19T12:25:35;36.55;;;24.08;;
41739;SDS011;27422;52.444;13.300;2023-10-19T12:28:03;38.67;;;24.15;;
41739;SDS011;27422;52.444;13.300;2023-10-19T12:30:29;40.22;;;24.48;;
41739;SDS011;27422;52.444;13.300;2023-10-19T12:33:00;35.70;;;23.65;;
41739;SDS011;27422;52.444;13.300;2023-10-19T12:35:26;39.85;;;24.98;;
41739;SDS011;27422;52.444;13.300;2023-10-19T12:38:13;37.72;;;24.88;;
41739;SDS011;27422;52.444;13.300;2023-10-19T12:40:42;39.30;;;24.13;;
41739;SDS011;27422;52.444;13.300;2023-10-19T12:43:09;39.58;;;25.25;;
41739;SDS011;27422;52.444;13.300;2023-10-19T12:45:36;38.38;;;24.75;;
41739;SDS011;27422;52.444;13.300;2023-10-19T12:48:02;40.28;;;25.48;;
41739;SDS011;27422;52.444;13.300;2023-10-19T12:50:29;37.65;;;24.83;;
41739;SDS011;27422;52.444;13.300;2023-10-19T12:52:56;40.35;;;25.02;;
41739;SDS011;27422;52.444;13.300;2023-10-19T12:55:21;42.63;;;25.30;;
41739;SDS011;27422;52.444;13.300;2023-10-19T12:57:47;41.70;;;25.77;;
41739;SDS011;27422;52.444;13.300;2023-10-19T13:00:13;39.28;;;23.90;;
41739;SDS011;27422;52.444;13.300;2023-10-19T13:02:57;38.83;;;24.92;;
41739;SDS011;27422;52.444;13.300;2023-10-19T13:05:35;41.40;;;25.98;;
41739;SDS011;27422;52.444;13.300;2023-10-19T13:08:02;43.05;;;26.15;;
41739;SDS011;27422;52.444;13.300;2023-10-19T13:10:30;38.13;;;25.08;;
41739;SDS011;27422;52.444;13.300;2023-10-19T13:12:59;38.03;;;25.48;;
41739;SDS011;27422;52.444;13.300;2023-10-19T13:15:28;41.33;;;26.30;;
41739;SDS011;27422;52.444;13.300;2023-10-19T13:17:57;42.28;;;26.77;;
41739;SDS011;27422;52.444;13.300;2023-10-19T13:20:26;40.50;;;25.92;;
41739;SDS011;27422;52.444;13.300;2023-10-19T13:22:53;41.60;;;27.08;;
41739;SDS011;27422;52.444;13.300;2023-10-19T13:25:22;46.30;;;28.00;;
41739;SDS011;27422;52.444;13.300;2023-10-19T13:28:04;42.53;;;26.65;;
41739;SDS011;27422;52.444;13.300;2023-10-19T13:30:35;44.42;;;27.35;;
41739;SDS011;27422;52.444;13.300;2023-10-19T13:33:01;43.40;;;26.75;;
41739;SDS011;27422;52.444;13.300;2023-10-19T13:35:29;43.85;;;27.45;;
41739;SDS011;27422;52.444;13.300;2023-10-19T13:37:55;43.15;;;27.90;;
41739;SDS011;27422;52.444;13.300;2023-10-19T13:40:21;43.72;;;28.50;;
41739;SDS011;27422;52.444;13.300;2023-10-19T13:42:48;46.45;;;28.98;;
41739;SDS011;27422;52.444;13.300;2023-10-19T13:45:14;45.17;;;28.75;;
41739;SDS011;27422;52.444;13.300;2023-10-19T13:47:39;44.45;;;27.52;;
41739;SDS011;27422;52.444;13.300;2023-10-19T13:50:05;46.33;;;29.30;;
41739;SDS011;27422;52.444;13.300;2023-10-19T13:52:32;45.85;;;29.23;;
41739;SDS011;27422;52.444;13.300;2023-10-19T13:57:25;48.33;;;29.27;;
41739;SDS011;27422;52.444;13.300;2023-10-19T13:59:50;48.47;;;30.30;;
41739;SDS011;27422;52.444;13.300;2023-10-19T14:02:16;47.70;;;28.98;;
41739;SDS011;27422;52.444;13.300;2023-10-19T14:04:41;46.88;;;29.73;;
41739;SDS011;27422;52.444;13.300;2023-10-19T14:07:06;45.55;;;29.15;;
41739;SDS011;27422;52.444;13.300;2023-10-19T14:09:33;46.38;;;28.73;;
41739;SDS011;27422;52.444;13.300;2023-10-19T14:11:58;47.53;;;29.77;;
41739;SDS011;27422;52.444;13.300;2023-10-19T14:14:23;50.83;;;28.40;;
41739;SDS011;27422;52.444;13.300;2023-10-19T14:16:49;49.25;;;29.92;;
41739;SDS011;27422;52.444;13.300;2023-10-19T14:19:15;45.38;;;29.83;;
41739;SDS011;27422;52.444;13.300;2023-10-19T14:21:42;46.53;;;30.23;;
41739;SDS011;27422;52.444;13.300;2023-10-19T14:24:12;50.13;;;31.08;;
41739;SDS011;27422;52.444;13.300;2023-10-19T14:26:38;48.92;;;29.70;;
41739;SDS011;27422;52.444;13.300;2023-10-19T14:29:03;54.67;;;32.05;;
41739;SDS011;27422;52.444;13.300;2023-10-19T14:31:29;51.75;;;30.98;;
41739;SDS011;27422;52.444;13.300;2023-10-19T14:33:54;46.83;;;31.02;;
41739;SDS011;27422;52.444;13.300;2023-10-19T14:36:20;55.10;;;32.65;;
41739;SDS011;27422;52.444;13.300;2023-10-19T14:38:45;49.70;;;31.80;;
41739;SDS011;27422;52.444;13.300;2023-10-19T14:41:12;51.80;;;32.30;;
41739;SDS011;27422;52.444;13.300;2023-10-19T14:43:38;54.83;;;33.85;;
41739;SDS011;27422;52.444;13.300;2023-10-19T14:46:06;54.50;;;33.00;;
41739;SDS011;27422;52.444;13.300;2023-10-19T14:48:32;51.67;;;32.78;;
41739;SDS011;27422;52.444;13.300;2023-10-19T14:50:57;51.20;;;32.70;;
41739;SDS011;27422;52.444;13.300;2023-10-19T14:53:23;55.42;;;33.25;;